Terminal Aerodrome Forecast
Issued by NWS

Home | Current Version | Previous Version | Text Only | Print | Product List | Glossary On
Versions: 1 2 3 4 5 6 7 8 9 10 11 12 13
214
FTUS42 KGSP 220533
TAFAND
TAF
KAND 220533Z 2206/2306 08006KT P6SM OVC090 PROB30 2215/2221 4SM
      -SHRA OVC025
     FM222200 08010KT P6SM OVC030 PROB30 2222/2224 2SM -SHRA OVC015
     FM230100 08015G22KT 4SM -SHRA SCT009 OVC020=

USA.gov is the U.S. government's official web portal to all federal, state and local government web resources and services.